sensor_id;sensor_type;location;lat;lon;timestamp;P1;durP1;ratioP1;P2;durP2;ratioP2
64887;SDS011;51386;53.082;8.816;2023-02-19T00:01:32;6.63;;;6.03;;
64887;SDS011;51386;53.082;8.816;2023-02-19T00:04:03;7.13;;;6.43;;
64887;SDS011;51386;53.082;8.816;2023-02-19T00:06:34;7.60;;;6.37;;
64887;SDS011;51386;53.082;8.816;2023-02-19T00:09:02;7.07;;;6.47;;
64887;SDS011;51386;53.082;8.816;2023-02-19T00:11:30;7.90;;;6.83;;
64887;SDS011;51386;53.082;8.816;2023-02-19T00:14:00;6.37;;;5.43;;
64887;SDS011;51386;53.082;8.816;2023-02-19T00:16:29;7.47;;;6.67;;
64887;SDS011;51386;53.082;8.816;2023-02-19T00:18:58;7.60;;;6.90;;
64887;SDS011;51386;53.082;8.816;2023-02-19T00:21:28;8.10;;;7.30;;
64887;SDS011;51386;53.082;8.816;2023-02-19T00:23:57;9.00;;;7.83;;
64887;SDS011;51386;53.082;8.816;2023-02-19T00:26:27;8.43;;;6.87;;
64887;SDS011;51386;53.082;8.816;2023-02-19T00:28:55;9.00;;;7.03;;
64887;SDS011;51386;53.082;8.816;2023-02-19T00:31:24;8.77;;;7.00;;
64887;SDS011;51386;53.082;8.816;2023-02-19T00:33:54;6.93;;;6.23;;
64887;SDS011;51386;53.082;8.816;2023-02-19T00:36:24;6.53;;;5.90;;
64887;SDS011;51386;53.082;8.816;2023-02-19T00:38:53;7.70;;;6.53;;
64887;SDS011;51386;53.082;8.816;2023-02-19T00:41:22;7.07;;;6.10;;
64887;SDS011;51386;53.082;8.816;2023-02-19T00:43:51;6.87;;;6.20;;
64887;SDS011;51386;53.082;8.816;2023-02-19T00:46:20;7.50;;;6.40;;
64887;SDS011;51386;53.082;8.816;2023-02-19T00:48:49;8.33;;;7.27;;
64887;SDS011;51386;53.082;8.816;2023-02-19T00:51:20;6.33;;;5.37;;
64887;SDS011;51386;53.082;8.816;2023-02-19T00:53:48;6.90;;;6.00;;
64887;SDS011;51386;53.082;8.816;2023-02-19T00:56:16;6.07;;;5.33;;
64887;SDS011;51386;53.082;8.816;2023-02-19T00:58:45;5.87;;;5.27;;
64887;SDS011;51386;53.082;8.816;2023-02-19T01:01:13;6.23;;;5.50;;
64887;SDS011;51386;53.082;8.816;2023-02-19T01:03:41;7.50;;;6.67;;
64887;SDS011;51386;53.082;8.816;2023-02-19T01:06:09;6.57;;;5.97;;
64887;SDS011;51386;53.082;8.816;2023-02-19T01:08:38;6.37;;;5.77;;
64887;SDS011;51386;53.082;8.816;2023-02-19T01:11:05;6.63;;;6.03;;
64887;SDS011;51386;53.082;8.816;2023-02-19T01:13:34;5.87;;;5.37;;
64887;SDS011;51386;53.082;8.816;2023-02-19T01:16:03;5.07;;;4.57;;
64887;SDS011;51386;53.082;8.816;2023-02-19T01:18:32;4.20;;;3.80;;
64887;SDS011;51386;53.082;8.816;2023-02-19T01:20:59;4.40;;;3.97;;
64887;SDS011;51386;53.082;8.816;2023-02-19T01:23:30;5.33;;;4.60;;
64887;SDS011;51386;53.082;8.816;2023-02-19T01:25:57;3.90;;;3.37;;
64887;SDS011;51386;53.082;8.816;2023-02-19T01:28:24;3.20;;;2.97;;
64887;SDS011;51386;53.082;8.816;2023-02-19T01:30:52;3.80;;;3.43;;
64887;SDS011;51386;53.082;8.816;2023-02-19T01:33:20;4.10;;;3.37;;
64887;SDS011;51386;53.082;8.816;2023-02-19T01:35:47;3.63;;;3.33;;
64887;SDS011;51386;53.082;8.816;2023-02-19T01:38:14;3.63;;;3.17;;
64887;SDS011;51386;53.082;8.816;2023-02-19T01:40:41;4.10;;;3.70;;
64887;SDS011;51386;53.082;8.816;2023-02-19T01:43:10;4.37;;;3.60;;
64887;SDS011;51386;53.082;8.816;2023-02-19T01:45:41;4.13;;;3.73;;
64887;SDS011;51386;53.082;8.816;2023-02-19T01:48:11;3.53;;;3.23;;
64887;SDS011;51386;53.082;8.816;2023-02-19T01:50:46;4.17;;;3.60;;
64887;SDS011;51386;53.082;8.816;2023-02-19T01:53:18;4.37;;;4.00;;
64887;SDS011;51386;53.082;8.816;2023-02-19T01:55:51;4.90;;;3.80;;
64887;SDS011;51386;53.082;8.816;2023-02-19T01:58:25;3.40;;;3.10;;
64887;SDS011;51386;53.082;8.816;2023-02-19T02:00:58;3.77;;;3.10;;
64887;SDS011;51386;53.082;8.816;2023-02-19T02:03:28;4.60;;;3.67;;
64887;SDS011;51386;53.082;8.816;2023-02-19T02:05:58;3.20;;;2.90;;
64887;SDS011;51386;53.082;8.816;2023-02-19T02:08:30;3.53;;;3.20;;
64887;SDS011;51386;53.082;8.816;2023-02-19T02:11:17;3.50;;;3.20;;
64887;SDS011;51386;53.082;8.816;2023-02-19T02:13:46;3.27;;;2.97;;
64887;SDS011;51386;53.082;8.816;2023-02-19T02:16:16;3.87;;;3.20;;
64887;SDS011;51386;53.082;8.816;2023-02-19T02:18:56;3.40;;;3.00;;
64887;SDS011;51386;53.082;8.816;2023-02-19T02:21:45;4.20;;;3.80;;
64887;SDS011;51386;53.082;8.816;2023-02-19T02:27:40;3.37;;;3.07;;
64887;SDS011;51386;53.082;8.816;2023-02-19T02:30:28;2.97;;;2.67;;
64887;SDS011;51386;53.082;8.816;2023-02-19T02:33:05;3.80;;;3.17;;
64887;SDS011;51386;53.082;8.816;2023-02-19T02:35:48;3.73;;;3.37;;
64887;SDS011;51386;53.082;8.816;2023-02-19T02:38:20;3.20;;;2.90;;
64887;SDS011;51386;53.082;8.816;2023-02-19T02:40:53;3.83;;;3.33;;
64887;SDS011;51386;53.082;8.816;2023-02-19T02:43:21;4.73;;;3.63;;
64887;SDS011;51386;53.082;8.816;2023-02-19T02:45:51;3.30;;;3.00;;
64887;SDS011;51386;53.082;8.816;2023-02-19T02:48:21;3.90;;;3.50;;
64887;SDS011;51386;53.082;8.816;2023-02-19T02:50:57;3.63;;;3.27;;
64887;SDS011;51386;53.082;8.816;2023-02-19T02:53:31;3.87;;;3.30;;
64887;SDS011;51386;53.082;8.816;2023-02-19T02:56:22;4.47;;;3.73;;
64887;SDS011;51386;53.082;8.816;2023-02-19T02:58:51;3.33;;;3.00;;
64887;SDS011;51386;53.082;8.816;2023-02-19T03:01:24;4.00;;;3.60;;
64887;SDS011;51386;53.082;8.816;2023-02-19T03:04:18;5.43;;;3.20;;
64887;SDS011;51386;53.082;8.816;2023-02-19T03:06:52;5.57;;;2.93;;
64887;SDS011;51386;53.082;8.816;2023-02-19T03:09:22;5.80;;;2.50;;
64887;SDS011;51386;53.082;8.816;2023-02-19T03:12:06;4.70;;;2.80;;
64887;SDS011;51386;53.082;8.816;2023-02-19T03:14:59;3.40;;;2.10;;
64887;SDS011;51386;53.082;8.816;2023-02-19T03:17:55;3.07;;;2.30;;
64887;SDS011;51386;53.082;8.816;2023-02-19T03:20:47;7.13;;;2.43;;
64887;SDS011;51386;53.082;8.816;2023-02-19T03:23:18;4.73;;;1.67;;
64887;SDS011;51386;53.082;8.816;2023-02-19T03:28:37;3.23;;;1.90;;
64887;SDS011;51386;53.082;8.816;2023-02-19T03:31:26;3.77;;;1.90;;
64887;SDS011;51386;53.082;8.816;2023-02-19T03:33:59;4.43;;;1.73;;
64887;SDS011;51386;53.082;8.816;2023-02-19T03:36:32;5.43;;;2.40;;
64887;SDS011;51386;53.082;8.816;2023-02-19T03:39:09;5.90;;;2.20;;
64887;SDS011;51386;53.082;8.816;2023-02-19T03:41:40;5.83;;;1.97;;
64887;SDS011;51386;53.082;8.816;2023-02-19T03:44:20;4.57;;;2.60;;
64887;SDS011;51386;53.082;8.816;2023-02-19T03:46:59;3.60;;;2.20;;
64887;SDS011;51386;53.082;8.816;2023-02-19T03:49:37;3.77;;;1.70;;
64887;SDS011;51386;53.082;8.816;2023-02-19T03:52:14;3.40;;;1.70;;
64887;SDS011;51386;53.082;8.816;2023-02-19T03:54:50;4.23;;;1.53;;
64887;SDS011;51386;53.082;8.816;2023-02-19T03:57:30;3.70;;;2.13;;
64887;SDS011;51386;53.082;8.816;2023-02-19T04:00:05;2.93;;;1.40;;
64887;SDS011;51386;53.082;8.816;2023-02-19T04:02:40;6.13;;;2.23;;
64887;SDS011;51386;53.082;8.816;2023-02-19T04:05:17;4.67;;;2.00;;
64887;SDS011;51386;53.082;8.816;2023-02-19T04:07:48;4.00;;;1.83;;
64887;SDS011;51386;53.082;8.816;2023-02-19T04:10:19;4.27;;;1.90;;
64887;SDS011;51386;53.082;8.816;2023-02-19T04:12:49;3.40;;;2.07;;
64887;SDS011;51386;53.082;8.816;2023-02-19T04:15:24;2.93;;;1.83;;
64887;SDS011;51386;53.082;8.816;2023-02-19T04:17:57;5.30;;;2.10;;
64887;SDS011;51386;53.082;8.816;2023-02-19T04:20:31;2.90;;;1.73;;
64887;SDS011;51386;53.082;8.816;2023-02-19T04:23:04;3.57;;;1.73;;
64887;SDS011;51386;53.082;8.816;2023-02-19T04:25:32;3.07;;;1.77;;
64887;SDS011;51386;53.082;8.816;2023-02-19T04:28:02;2.97;;;1.43;;
64887;SDS011;51386;53.082;8.816;2023-02-19T04:30:29;2.57;;;2.10;;
64887;SDS011;51386;53.082;8.816;2023-02-19T04:32:57;4.40;;;1.70;;
64887;SDS011;51386;53.082;8.816;2023-02-19T04:35:24;3.00;;;1.83;;
64887;SDS011;51386;53.082;8.816;2023-02-19T04:37:52;2.57;;;1.73;;
64887;SDS011;51386;53.082;8.816;2023-02-19T04:40:19;2.90;;;1.77;;
64887;SDS011;51386;53.082;8.816;2023-02-19T04:42:46;2.30;;;1.37;;
64887;SDS011;51386;53.082;8.816;2023-02-19T04:45:13;4.07;;;1.90;;
64887;SDS011;51386;53.082;8.816;2023-02-19T04:47:40;3.07;;;2.10;;
64887;SDS011;51386;53.082;8.816;2023-02-19T04:50:07;2.60;;;2.00;;
64887;SDS011;51386;53.082;8.816;2023-02-19T04:52:34;2.67;;;1.73;;
64887;SDS011;51386;53.082;8.816;2023-02-19T04:55:03;4.53;;;2.30;;
64887;SDS011;51386;53.082;8.816;2023-02-19T04:57:31;3.57;;;2.20;;
64887;SDS011;51386;53.082;8.816;2023-02-19T04:59:58;4.97;;;2.30;;
64887;SDS011;51386;53.082;8.816;2023-02-19T05:02:24;5.30;;;1.73;;
64887;SDS011;51386;53.082;8.816;2023-02-19T05:04:51;3.17;;;1.80;;
64887;SDS011;51386;53.082;8.816;2023-02-19T05:07:18;4.10;;;2.40;;
64887;SDS011;51386;53.082;8.816;2023-02-19T05:09:45;3.90;;;1.40;;
64887;SDS011;51386;53.082;8.816;2023-02-19T05:12:13;3.83;;;1.67;;
64887;SDS011;51386;53.082;8.816;2023-02-19T05:14:40;4.80;;;1.90;;
64887;SDS011;51386;53.082;8.816;2023-02-19T05:17:07;3.10;;;1.77;;
64887;SDS011;51386;53.082;8.816;2023-02-19T05:19:34;4.10;;;1.70;;
64887;SDS011;51386;53.082;8.816;2023-02-19T05:22:01;4.27;;;2.07;;
64887;SDS011;51386;53.082;8.816;2023-02-19T05:24:28;3.37;;;2.00;;
64887;SDS011;51386;53.082;8.816;2023-02-19T05:26:56;3.27;;;1.73;;
64887;SDS011;51386;53.082;8.816;2023-02-19T05:29:24;3.07;;;1.80;;
64887;SDS011;51386;53.082;8.816;2023-02-19T05:31:52;3.43;;;1.90;;
64887;SDS011;51386;53.082;8.816;2023-02-19T05:34:19;3.33;;;1.40;;
64887;SDS011;51386;53.082;8.816;2023-02-19T05:36:46;2.80;;;1.70;;
64887;SDS011;51386;53.082;8.816;2023-02-19T05:39:13;2.70;;;1.40;;
64887;SDS011;51386;53.082;8.816;2023-02-19T05:41:40;3.23;;;1.57;;
64887;SDS011;51386;53.082;8.816;2023-02-19T05:44:08;2.20;;;1.40;;
64887;SDS011;51386;53.082;8.816;2023-02-19T05:46:37;3.33;;;1.53;;
64887;SDS011;51386;53.082;8.816;2023-02-19T05:49:04;3.97;;;1.77;;
64887;SDS011;51386;53.082;8.816;2023-02-19T05:51:31;3.10;;;1.50;;
64887;SDS011;51386;53.082;8.816;2023-02-19T05:53:57;4.03;;;1.70;;
64887;SDS011;51386;53.082;8.816;2023-02-19T05:56:31;2.50;;;1.97;;
64887;SDS011;51386;53.082;8.816;2023-02-19T05:59:02;2.63;;;1.70;;
64887;SDS011;51386;53.082;8.816;2023-02-19T06:01:33;3.23;;;1.83;;
64887;SDS011;51386;53.082;8.816;2023-02-19T06:04:02;4.23;;;2.10;;
64887;SDS011;51386;53.082;8.816;2023-02-19T06:06:29;2.93;;;1.83;;
64887;SDS011;51386;53.082;8.816;2023-02-19T06:08:56;2.27;;;1.80;;
64887;SDS011;51386;53.082;8.816;2023-02-19T06:11:23;5.27;;;1.67;;
64887;SDS011;51386;53.082;8.816;2023-02-19T06:13:51;4.03;;;2.37;;
64887;SDS011;51386;53.082;8.816;2023-02-19T06:16:18;4.43;;;1.80;;
64887;SDS011;51386;53.082;8.816;2023-02-19T06:18:45;2.27;;;1.93;;
64887;SDS011;51386;53.082;8.816;2023-02-19T06:21:14;5.40;;;1.80;;
64887;SDS011;51386;53.082;8.816;2023-02-19T06:23:42;2.90;;;1.73;;
64887;SDS011;51386;53.082;8.816;2023-02-19T06:26:10;2.60;;;1.47;;
64887;SDS011;51386;53.082;8.816;2023-02-19T06:28:40;3.93;;;2.03;;
64887;SDS011;51386;53.082;8.816;2023-02-19T06:31:08;3.00;;;2.27;;
64887;SDS011;51386;53.082;8.816;2023-02-19T06:33:36;3.97;;;1.90;;
64887;SDS011;51386;53.082;8.816;2023-02-19T06:36:06;3.73;;;1.83;;
64887;SDS011;51386;53.082;8.816;2023-02-19T06:38:38;4.13;;;2.03;;
64887;SDS011;51386;53.082;8.816;2023-02-19T06:41:05;3.47;;;2.13;;
64887;SDS011;51386;53.082;8.816;2023-02-19T06:43:35;6.40;;;2.13;;
64887;SDS011;51386;53.082;8.816;2023-02-19T06:46:02;4.90;;;2.33;;
64887;SDS011;51386;53.082;8.816;2023-02-19T06:48:32;2.37;;;1.67;;
64887;SDS011;51386;53.082;8.816;2023-02-19T06:51:00;2.77;;;1.83;;
64887;SDS011;51386;53.082;8.816;2023-02-19T06:53:27;3.93;;;1.70;;
64887;SDS011;51386;53.082;8.816;2023-02-19T06:55:56;3.13;;;2.20;;
64887;SDS011;51386;53.082;8.816;2023-02-19T06:58:24;1.97;;;1.77;;
64887;SDS011;51386;53.082;8.816;2023-02-19T07:00:52;2.17;;;1.70;;
64887;SDS011;51386;53.082;8.816;2023-02-19T07:03:19;6.37;;;1.90;;
64887;SDS011;51386;53.082;8.816;2023-02-19T07:05:47;2.57;;;2.10;;
64887;SDS011;51386;53.082;8.816;2023-02-19T07:08:14;4.60;;;2.10;;
64887;SDS011;51386;53.082;8.816;2023-02-19T07:10:42;4.50;;;1.70;;
64887;SDS011;51386;53.082;8.816;2023-02-19T07:13:11;5.70;;;2.13;;
64887;SDS011;51386;53.082;8.816;2023-02-19T07:15:38;3.67;;;2.33;;
64887;SDS011;51386;53.082;8.816;2023-02-19T07:18:05;3.40;;;2.23;;
64887;SDS011;51386;53.082;8.816;2023-02-19T07:20:35;4.07;;;2.13;;
64887;SDS011;51386;53.082;8.816;2023-02-19T07:23:02;4.63;;;2.33;;
64887;SDS011;51386;53.082;8.816;2023-02-19T07:25:29;2.53;;;1.90;;
64887;SDS011;51386;53.082;8.816;2023-02-19T07:27:56;2.70;;;2.43;;
64887;SDS011;51386;53.082;8.816;2023-02-19T07:30:25;3.37;;;2.00;;
64887;SDS011;51386;53.082;8.816;2023-02-19T07:32:52;3.90;;;2.17;;
64887;SDS011;51386;53.082;8.816;2023-02-19T07:35:18;4.20;;;2.70;;
64887;SDS011;51386;53.082;8.816;2023-02-19T07:37:45;7.13;;;2.90;;
64887;SDS011;51386;53.082;8.816;2023-02-19T07:40:12;2.97;;;2.20;;
64887;SDS011;51386;53.082;8.816;2023-02-19T07:42:39;5.67;;;2.90;;
64887;SDS011;51386;53.082;8.816;2023-02-19T07:45:06;5.53;;;2.63;;
64887;SDS011;51386;53.082;8.816;2023-02-19T07:47:35;2.80;;;2.20;;
64887;SDS011;51386;53.082;8.816;2023-02-19T07:50:02;4.13;;;2.17;;
64887;SDS011;51386;53.082;8.816;2023-02-19T07:52:30;4.07;;;2.40;;
64887;SDS011;51386;53.082;8.816;2023-02-19T07:54:58;2.63;;;2.10;;
64887;SDS011;51386;53.082;8.816;2023-02-19T07:57:26;5.43;;;2.30;;
64887;SDS011;51386;53.082;8.816;2023-02-19T07:59:54;4.10;;;2.60;;
64887;SDS011;51386;53.082;8.816;2023-02-19T08:02:20;5.43;;;2.80;;
64887;SDS011;51386;53.082;8.816;2023-02-19T08:05:07;3.60;;;2.67;;
64887;SDS011;51386;53.082;8.816;2023-02-19T08:07:35;3.77;;;2.50;;
64887;SDS011;51386;53.082;8.816;2023-02-19T08:10:03;3.60;;;2.30;;
64887;SDS011;51386;53.082;8.816;2023-02-19T08:12:56;4.30;;;2.80;;
64887;SDS011;51386;53.082;8.816;2023-02-19T08:15:43;4.10;;;2.40;;
64887;SDS011;51386;53.082;8.816;2023-02-19T08:18:11;5.47;;;3.13;;
64887;SDS011;51386;53.082;8.816;2023-02-19T08:20:40;8.43;;;3.30;;
64887;SDS011;51386;53.082;8.816;2023-02-19T08:23:09;5.13;;;3.27;;
64887;SDS011;51386;53.082;8.816;2023-02-19T08:25:37;5.60;;;3.33;;
64887;SDS011;51386;53.082;8.816;2023-02-19T08:28:06;5.33;;;4.10;;
64887;SDS011;51386;53.082;8.816;2023-02-19T08:30:36;7.33;;;4.33;;
64887;SDS011;51386;53.082;8.816;2023-02-19T08:33:05;4.47;;;3.30;;
64887;SDS011;51386;53.082;8.816;2023-02-19T08:35:33;4.80;;;3.90;;
64887;SDS011;51386;53.082;8.816;2023-02-19T08:38:03;6.63;;;4.87;;
64887;SDS011;51386;53.082;8.816;2023-02-19T08:40:33;5.60;;;5.03;;
64887;SDS011;51386;53.082;8.816;2023-02-19T08:43:01;7.73;;;5.43;;
64887;SDS011;51386;53.082;8.816;2023-02-19T08:45:29;6.43;;;4.47;;
64887;SDS011;51386;53.082;8.816;2023-02-19T08:47:56;6.53;;;5.10;;
64887;SDS011;51386;53.082;8.816;2023-02-19T08:50:23;7.30;;;4.90;;
64887;SDS011;51386;53.082;8.816;2023-02-19T08:52:51;6.40;;;4.93;;
64887;SDS011;51386;53.082;8.816;2023-02-19T08:55:19;5.27;;;4.03;;
64887;SDS011;51386;53.082;8.816;2023-02-19T08:57:47;5.77;;;4.17;;
64887;SDS011;51386;53.082;8.816;2023-02-19T09:00:16;6.60;;;4.97;;
64887;SDS011;51386;53.082;8.816;2023-02-19T09:02:43;5.57;;;3.40;;
64887;SDS011;51386;53.082;8.816;2023-02-19T09:05:10;7.53;;;4.50;;
64887;SDS011;51386;53.082;8.816;2023-02-19T09:07:38;7.13;;;4.37;;
64887;SDS011;51386;53.082;8.816;2023-02-19T09:10:05;5.93;;;4.63;;
64887;SDS011;51386;53.082;8.816;2023-02-19T09:12:36;7.97;;;4.37;;
64887;SDS011;51386;53.082;8.816;2023-02-19T09:15:04;5.23;;;4.10;;
64887;SDS011;51386;53.082;8.816;2023-02-19T09:17:31;6.27;;;3.93;;
64887;SDS011;51386;53.082;8.816;2023-02-19T09:19:58;4.43;;;3.87;;
64887;SDS011;51386;53.082;8.816;2023-02-19T09:22:25;4.53;;;3.60;;
64887;SDS011;51386;53.082;8.816;2023-02-19T09:24:52;6.63;;;3.83;;
64887;SDS011;51386;53.082;8.816;2023-02-19T09:27:19;4.20;;;3.30;;
64887;SDS011;51386;53.082;8.816;2023-02-19T09:29:48;6.30;;;3.40;;
64887;SDS011;51386;53.082;8.816;2023-02-19T09:32:15;4.67;;;2.10;;
64887;SDS011;51386;53.082;8.816;2023-02-19T09:34:44;6.03;;;2.77;;
64887;SDS011;51386;53.082;8.816;2023-02-19T09:37:11;6.80;;;3.20;;
64887;SDS011;51386;53.082;8.816;2023-02-19T09:39:38;6.70;;;3.10;;
64887;SDS011;51386;53.082;8.816;2023-02-19T09:42:08;4.40;;;2.70;;
64887;SDS011;51386;53.082;8.816;2023-02-19T09:44:44;3.40;;;2.77;;
64887;SDS011;51386;53.082;8.816;2023-02-19T09:47:16;3.10;;;2.27;;
64887;SDS011;51386;53.082;8.816;2023-02-19T09:49:46;5.13;;;2.87;;
64887;SDS011;51386;53.082;8.816;2023-02-19T09:52:18;5.17;;;2.60;;
64887;SDS011;51386;53.082;8.816;2023-02-19T09:54:56;4.93;;;1.97;;
64887;SDS011;51386;53.082;8.816;2023-02-19T09:57:29;1.30;;;1.20;;
64887;SDS011;51386;53.082;8.816;2023-02-19T10:00:03;3.47;;;1.80;;
64887;SDS011;51386;53.082;8.816;2023-02-19T10:02:52;3.17;;;1.47;;
64887;SDS011;51386;53.082;8.816;2023-02-19T10:05:25;3.50;;;1.70;;
64887;SDS011;51386;53.082;8.816;2023-02-19T10:07:53;3.40;;;1.87;;
64887;SDS011;51386;53.082;8.816;2023-02-19T10:10:23;3.50;;;1.90;;
64887;SDS011;51386;53.082;8.816;2023-02-19T10:12:55;5.27;;;1.97;;
64887;SDS011;51386;53.082;8.816;2023-02-19T10:15:40;6.27;;;2.33;;
64887;SDS011;51386;53.082;8.816;2023-02-19T10:18:17;4.73;;;2.13;;
64887;SDS011;51386;53.082;8.816;2023-02-19T10:20:47;3.33;;;1.83;;
64887;SDS011;51386;53.082;8.816;2023-02-19T10:23:17;3.20;;;1.40;;
64887;SDS011;51386;53.082;8.816;2023-02-19T10:25:46;3.87;;;1.37;;
64887;SDS011;51386;53.082;8.816;2023-02-19T10:28:17;3.90;;;1.70;;
64887;SDS011;51386;53.082;8.816;2023-02-19T10:30:52;3.00;;;1.40;;
64887;SDS011;51386;53.082;8.816;2023-02-19T10:33:23;3.93;;;1.60;;
64887;SDS011;51386;53.082;8.816;2023-02-19T10:35:52;1.73;;;1.27;;
64887;SDS011;51386;53.082;8.816;2023-02-19T10:38:23;3.43;;;1.70;;
64887;SDS011;51386;53.082;8.816;2023-02-19T10:40:56;3.20;;;1.60;;
64887;SDS011;51386;53.082;8.816;2023-02-19T10:43:30;4.93;;;1.87;;
64887;SDS011;51386;53.082;8.816;2023-02-19T10:46:05;4.27;;;1.87;;
64887;SDS011;51386;53.082;8.816;2023-02-19T10:48:44;4.37;;;1.60;;
64887;SDS011;51386;53.082;8.816;2023-02-19T10:51:17;1.63;;;1.37;;
64887;SDS011;51386;53.082;8.816;2023-02-19T10:53:48;3.33;;;1.40;;
64887;SDS011;51386;53.082;8.816;2023-02-19T10:56:27;4.83;;;1.70;;
64887;SDS011;51386;53.082;8.816;2023-02-19T10:58:58;4.33;;;1.30;;
64887;SDS011;51386;53.082;8.816;2023-02-19T11:01:54;3.93;;;2.10;;
64887;SDS011;51386;53.082;8.816;2023-02-19T11:04:23;3.13;;;1.80;;
64887;SDS011;51386;53.082;8.816;2023-02-19T11:06:52;6.77;;;3.00;;
64887;SDS011;51386;53.082;8.816;2023-02-19T11:09:27;4.87;;;1.87;;
64887;SDS011;51386;53.082;8.816;2023-02-19T11:12:00;4.40;;;2.17;;
64887;SDS011;51386;53.082;8.816;2023-02-19T11:14:30;4.60;;;2.70;;
64887;SDS011;51386;53.082;8.816;2023-02-19T11:17:00;5.47;;;1.60;;
64887;SDS011;51386;53.082;8.816;2023-02-19T11:19:33;7.33;;;2.30;;
64887;SDS011;51386;53.082;8.816;2023-02-19T11:22:18;5.13;;;1.87;;
64887;SDS011;51386;53.082;8.816;2023-02-19T11:25:18;6.33;;;2.90;;
64887;SDS011;51386;53.082;8.816;2023-02-19T11:27:55;5.40;;;1.97;;
64887;SDS011;51386;53.082;8.816;2023-02-19T11:30:31;5.70;;;2.60;;
64887;SDS011;51386;53.082;8.816;2023-02-19T11:33:20;4.00;;;1.60;;
64887;SDS011;51386;53.082;8.816;2023-02-19T11:35:56;1.87;;;1.50;;
64887;SDS011;51386;53.082;8.816;2023-02-19T11:38:49;4.47;;;1.57;;
64887;SDS011;51386;53.082;8.816;2023-02-19T11:41:17;2.43;;;1.53;;
64887;SDS011;51386;53.082;8.816;2023-02-19T11:44:17;4.27;;;1.37;;
64887;SDS011;51386;53.082;8.816;2023-02-19T11:47:01;6.33;;;1.40;;
64887;SDS011;51386;53.082;8.816;2023-02-19T11:49:59;4.03;;;1.80;;
64887;SDS011;51386;53.082;8.816;2023-02-19T11:52:37;3.37;;;1.87;;
64887;SDS011;51386;53.082;8.816;2023-02-19T11:55:19;3.60;;;1.83;;
64887;SDS011;51386;53.082;8.816;2023-02-19T11:58:03;3.97;;;1.40;;
64887;SDS011;51386;53.082;8.816;2023-02-19T12:00:59;2.87;;;1.20;;
64887;SDS011;51386;53.082;8.816;2023-02-19T12:03:42;4.97;;;1.80;;
64887;SDS011;51386;53.082;8.816;2023-02-19T12:06:36;2.90;;;1.50;;
64887;SDS011;51386;53.082;8.816;2023-02-19T12:09:30;2.47;;;1.30;;
64887;SDS011;51386;53.082;8.816;2023-02-19T12:12:16;6.10;;;1.97;;
64887;SDS011;51386;53.082;8.816;2023-02-19T12:15:12;4.53;;;1.80;;
64887;SDS011;51386;53.082;8.816;2023-02-19T12:18:18;4.67;;;1.70;;
64887;SDS011;51386;53.082;8.816;2023-02-19T12:21:41;2.87;;;1.70;;
64887;SDS011;51386;53.082;8.816;2023-02-19T12:24:36;3.27;;;1.77;;
64887;SDS011;51386;53.082;8.816;2023-02-19T12:27:29;4.17;;;1.83;;
64887;SDS011;51386;53.082;8.816;2023-02-19T12:30:15;4.10;;;1.47;;
64887;SDS011;51386;53.082;8.816;2023-02-19T12:33:03;2.63;;;1.50;;
64887;SDS011;51386;53.082;8.816;2023-02-19T12:35:57;3.87;;;1.90;;
64887;SDS011;51386;53.082;8.816;2023-02-19T12:38:41;2.40;;;1.70;;
64887;SDS011;51386;53.082;8.816;2023-02-19T12:41:14;2.90;;;1.40;;
64887;SDS011;51386;53.082;8.816;2023-02-19T12:44:02;5.13;;;1.40;;
64887;SDS011;51386;53.082;8.816;2023-02-19T12:46:38;6.27;;;1.83;;
64887;SDS011;51386;53.082;8.816;2023-02-19T12:49:12;2.70;;;1.63;;
64887;SDS011;51386;53.082;8.816;2023-02-19T12:51:50;3.47;;;1.57;;
64887;SDS011;51386;53.082;8.816;2023-02-19T12:54:27;6.07;;;1.60;;
64887;SDS011;51386;53.082;8.816;2023-02-19T12:57:00;5.20;;;1.87;;
64887;SDS011;51386;53.082;8.816;2023-02-19T12:59:32;5.40;;;1.80;;
64887;SDS011;51386;53.082;8.816;2023-02-19T13:02:09;3.33;;;1.60;;
64887;SDS011;51386;53.082;8.816;2023-02-19T13:04:46;3.50;;;1.60;;
64887;SDS011;51386;53.082;8.816;2023-02-19T13:07:24;3.23;;;1.40;;
64887;SDS011;51386;53.082;8.816;2023-02-19T13:10:03;2.90;;;1.77;;
64887;SDS011;51386;53.082;8.816;2023-02-19T13:12:48;5.97;;;1.80;;
64887;SDS011;51386;53.082;8.816;2023-02-19T13:15:20;4.27;;;2.10;;
64887;SDS011;51386;53.082;8.816;2023-02-19T13:17:56;3.13;;;1.63;;
64887;SDS011;51386;53.082;8.816;2023-02-19T13:20:28;2.40;;;1.30;;
64887;SDS011;51386;53.082;8.816;2023-02-19T13:23:00;3.60;;;1.33;;
64887;SDS011;51386;53.082;8.816;2023-02-19T13:26:03;2.83;;;1.17;;
64887;SDS011;51386;53.082;8.816;2023-02-19T13:28:52;2.93;;;1.40;;
64887;SDS011;51386;53.082;8.816;2023-02-19T13:31:44;4.00;;;1.37;;
64887;SDS011;51386;53.082;8.816;2023-02-19T13:34:34;3.50;;;1.33;;
64887;SDS011;51386;53.082;8.816;2023-02-19T13:37:20;5.40;;;1.20;;
64887;SDS011;51386;53.082;8.816;2023-02-19T13:39:50;2.43;;;1.70;;
64887;SDS011;51386;53.082;8.816;2023-02-19T13:42:25;3.53;;;1.20;;
64887;SDS011;51386;53.082;8.816;2023-02-19T13:44:57;2.90;;;1.40;;
64887;SDS011;51386;53.082;8.816;2023-02-19T13:47:46;5.00;;;1.50;;
64887;SDS011;51386;53.082;8.816;2023-02-19T13:50:24;3.57;;;1.53;;
64887;SDS011;51386;53.082;8.816;2023-02-19T13:52:54;6.80;;;1.77;;
64887;SDS011;51386;53.082;8.816;2023-02-19T13:58:35;3.30;;;1.27;;
64887;SDS011;51386;53.082;8.816;2023-02-19T14:04:53;4.17;;;1.43;;
64887;SDS011;51386;53.082;8.816;2023-02-19T14:07:38;3.57;;;1.30;;
64887;SDS011;51386;53.082;8.816;2023-02-19T14:16:31;2.60;;;1.40;;
64887;SDS011;51386;53.082;8.816;2023-02-19T14:19:42;2.40;;;1.30;;
64887;SDS011;51386;53.082;8.816;2023-02-19T14:25:33;2.57;;;1.40;;
64887;SDS011;51386;53.082;8.816;2023-02-19T14:28:27;4.70;;;1.73;;
64887;SDS011;51386;53.082;8.816;2023-02-19T14:31:08;2.53;;;1.13;;
64887;SDS011;51386;53.082;8.816;2023-02-19T14:33:44;6.77;;;1.80;;
64887;SDS011;51386;53.082;8.816;2023-02-19T14:36:18;6.13;;;2.00;;
64887;SDS011;51386;53.082;8.816;2023-02-19T14:38:58;1.20;;;0.90;;
64887;SDS011;51386;53.082;8.816;2023-02-19T14:41:29;3.33;;;1.30;;
64887;SDS011;51386;53.082;8.816;2023-02-19T14:44:02;3.67;;;1.20;;
64887;SDS011;51386;53.082;8.816;2023-02-19T14:46:33;3.10;;;1.43;;
64887;SDS011;51386;53.082;8.816;2023-02-19T14:49:11;4.47;;;1.30;;
64887;SDS011;51386;53.082;8.816;2023-02-19T14:51:48;3.70;;;1.53;;
64887;SDS011;51386;53.082;8.816;2023-02-19T14:54:20;2.47;;;1.10;;
64887;SDS011;51386;53.082;8.816;2023-02-19T14:57:04;3.17;;;1.43;;
64887;SDS011;51386;53.082;8.816;2023-02-19T14:59:50;4.57;;;1.20;;
64887;SDS011;51386;53.082;8.816;2023-02-19T15:02:19;3.07;;;1.90;;
64887;SDS011;51386;53.082;8.816;2023-02-19T15:04:47;4.50;;;1.70;;
64887;SDS011;51386;53.082;8.816;2023-02-19T15:07:16;4.23;;;1.67;;
64887;SDS011;51386;53.082;8.816;2023-02-19T15:09:49;1.77;;;1.20;;
64887;SDS011;51386;53.082;8.816;2023-02-19T15:12:20;3.33;;;1.10;;
64887;SDS011;51386;53.082;8.816;2023-02-19T15:14:52;2.63;;;1.40;;
64887;SDS011;51386;53.082;8.816;2023-02-19T15:17:24;1.20;;;1.10;;
64887;SDS011;51386;53.082;8.816;2023-02-19T15:20:08;4.40;;;1.60;;
64887;SDS011;51386;53.082;8.816;2023-02-19T15:22:52;2.47;;;1.43;;
64887;SDS011;51386;53.082;8.816;2023-02-19T15:25:21;2.47;;;1.33;;
64887;SDS011;51386;53.082;8.816;2023-02-19T15:27:54;3.60;;;1.13;;
64887;SDS011;51386;53.082;8.816;2023-02-19T15:30:22;3.87;;;1.43;;
64887;SDS011;51386;53.082;8.816;2023-02-19T15:32:53;2.73;;;1.20;;
64887;SDS011;51386;53.082;8.816;2023-02-19T15:35:23;6.60;;;1.80;;
64887;SDS011;51386;53.082;8.816;2023-02-19T15:37:54;2.67;;;1.20;;
64887;SDS011;51386;53.082;8.816;2023-02-19T15:40:23;4.00;;;1.53;;
64887;SDS011;51386;53.082;8.816;2023-02-19T15:42:56;2.63;;;1.60;;
64887;SDS011;51386;53.082;8.816;2023-02-19T15:45:24;2.50;;;1.20;;
64887;SDS011;51386;53.082;8.816;2023-02-19T15:47:57;6.03;;;1.70;;